Time;durP1;ratioP1;P1;durP2;ratioP2;P2;SDS_P1;SDS_P2;PMS_P1;PMS_P2;Temp;Humidity;BMP_temperature;BMP_pressure;BME280_temperature;BME280_humidity;BME280_pressure;Samples;Min_cycle;Max_cycle;Signal;HPM_P1;HPM_P2
2022/05/13 00:00:40;;;;;;;;;;;11.80;99.90;;;;;;5063025;28;19925;-70
2022/05/13 00:03:08;;;;;;;;;;;11.70;99.90;;;;;;5053986;28;20359;-70
2022/05/13 00:05:35;;;;;;;;;;;11.70;99.90;;;;;;5061986;28;19929;-68
2022/05/13 00:08:02;;;;;;;;;;;11.60;99.90;;;;;;5062808;28;19931;-68
2022/05/13 00:10:37;;;;;;;;;;;11.50;99.90;;;;;;5066134;28;19928;-68
2022/05/13 00:13:04;;;;;;;;;;;11.50;99.90;;;;;;5099098;28;19925;-69
2022/05/13 00:15:31;;;;;;;;;;;11.40;99.90;;;;;;5063304;28;19978;-70
2022/05/13 00:17:58;;;;;;;;;;;11.30;99.90;;;;;;5069613;28;19929;-68
2022/05/13 00:20:25;;;;;;;;;;;11.20;99.90;;;;;;5066249;28;20011;-69
2022/05/13 00:22:53;;;;;;;;;;;11.10;99.90;;;;;;5054284;28;19959;-68
2022/05/13 00:25:22;;;;;;;;;;;11.10;99.90;;;;;;5061734;28;19924;-68
2022/05/13 00:27:53;;;;;;;;;;;11.00;99.90;;;;;;5067112;28;19925;-68
2022/05/13 00:30:21;;;;;;;;;;;11.00;99.90;;;;;;5063358;28;20371;-68
2022/05/13 00:32:49;;;;;;;;;;;10.90;99.90;;;;;;5071406;28;19935;-69
2022/05/13 00:35:19;;;;;;;;;;;11.00;99.90;;;;;;5068068;28;20355;-69
2022/05/13 00:37:46;;;;;;;;;;;11.00;99.90;;;;;;5069422;28;19925;-69
2022/05/13 00:40:14;;;;;;;;;;;11.10;99.90;;;;;;5064920;28;19950;-69
2022/05/13 00:42:41;;;;;;;;;;;11.00;99.90;;;;;;5055524;28;19924;-69
2022/05/13 00:45:14;;;;;;;;;;;11.00;99.90;;;;;;5067888;28;20026;-69
2022/05/13 00:47:42;;;;;;;;;;;10.90;99.90;;;;;;5068615;28;19971;-69
2022/05/13 00:50:15;;;;;;;;;;;10.80;99.90;;;;;;5072594;28;20458;-70
2022/05/13 00:52:43;;;;;;;;;;;10.80;99.90;;;;;;5074834;28;20439;-70
2022/05/13 00:55:12;;;;;;;;;;;10.70;99.90;;;;;;5064162;28;19931;-68
2022/05/13 00:57:39;;;;;;;;;;;10.60;99.90;;;;;;5061544;28;19925;-69
2022/05/13 01:00:09;;;;;;;;;;;10.50;99.90;;;;;;5052325;28;20411;-69
2022/05/13 01:02:43;;;;;;;;;;;10.40;99.90;;;;;;5064234;28;20374;-69
2022/05/13 01:05:11;;;;;;;;;;;10.30;99.90;;;;;;5071214;28;20282;-69
2022/05/13 01:07:39;;;;;;;;;;;10.20;99.90;;;;;;5066566;28;19931;-69
2022/05/13 01:10:07;;;;;;;;;;;10.20;99.90;;;;;;5069020;28;19928;-69
2022/05/13 01:12:36;;;;;;;;;;;10.20;99.90;;;;;;5070983;28;19972;-70
2022/05/13 01:15:11;;;;;;;;;;;10.20;99.90;;;;;;5072142;28;19955;-70
2022/05/13 01:20:27;;;;;;;;;;;10.10;99.90;;;;;;5068012;28;19934;-70
2022/05/13 01:23:00;;;;;;;;;;;9.90;99.90;;;;;;5069346;28;20573;-70
2022/05/13 01:25:28;;;;;;;;;;;9.90;99.90;;;;;;5062808;28;19924;-69
2022/05/13 01:27:56;;;;;;;;;;;9.80;99.90;;;;;;5077968;28;20011;-69
2022/05/13 01:30:25;;;;;;;;;;;9.80;99.90;;;;;;5062614;28;20019;-69
2022/05/13 01:32:51;;;;;;;;;;;9.70;99.90;;;;;;5065235;28;19960;-70
2022/05/13 01:35:18;;;;;;;;;;;9.70;99.90;;;;;;5061537;28;20409;-70
2022/05/13 01:37:45;;;;;;;;;;;9.60;99.90;;;;;;5056946;28;19967;-70
2022/05/13 01:40:12;;;;;;;;;;;9.60;99.90;;;;;;5064889;28;19932;-69
2022/05/13 01:42:40;;;;;;;;;;;9.50;99.90;;;;;;5065247;28;19987;-69
2022/05/13 01:45:08;;;;;;;;;;;9.50;99.90;;;;;;5069692;28;19941;-69
2022/05/13 01:47:34;;;;;;;;;;;9.40;99.90;;;;;;5064693;28;19946;-69
2022/05/13 01:50:01;;;;;;;;;;;9.40;99.90;;;;;;5062191;28;20054;-69
2022/05/13 01:52:28;;;;;;;;;;;9.40;99.90;;;;;;5062181;28;19925;-69
2022/05/13 01:54:54;;;;;;;;;;;9.30;99.90;;;;;;5071683;28;19924;-69
2022/05/13 01:57:21;;;;;;;;;;;9.20;99.90;;;;;;5062707;28;20391;-69
2022/05/13 01:59:48;;;;;;;;;;;9.10;99.90;;;;;;5073481;28;19931;-69
2022/05/13 02:02:14;;;;;;;;;;;9.10;99.90;;;;;;5061936;28;19925;-69
2022/05/13 02:04:41;;;;;;;;;;;9.00;99.90;;;;;;5062542;28;20007;-69
2022/05/13 02:07:07;;;;;;;;;;;8.90;99.90;;;;;;5071154;28;19924;-70
2022/05/13 02:09:34;;;;;;;;;;;8.90;99.90;;;;;;5071615;28;19924;-69
2022/05/13 02:12:01;;;;;;;;;;;8.80;99.90;;;;;;5076503;28;19924;-70
2022/05/13 02:14:28;;;;;;;;;;;8.80;99.90;;;;;;5066712;28;20265;-70
2022/05/13 02:16:54;;;;;;;;;;;8.80;99.90;;;;;;5066642;28;19946;-70
2022/05/13 02:19:23;;;;;;;;;;;8.70;99.90;;;;;;5066125;28;20338;-70
2022/05/13 02:21:49;;;;;;;;;;;8.70;99.90;;;;;;5065426;28;20029;-70
2022/05/13 02:24:16;;;;;;;;;;;8.70;99.90;;;;;;5074750;28;19990;-70
2022/05/13 02:26:43;;;;;;;;;;;8.70;99.90;;;;;;5076259;28;19929;-70
2022/05/13 02:29:10;;;;;;;;;;;8.70;99.90;;;;;;5080813;28;19924;-70
2022/05/13 02:31:36;;;;;;;;;;;8.70;99.90;;;;;;5069711;28;19928;-69
2022/05/13 02:34:03;;;;;;;;;;;8.70;99.90;;;;;;5081429;28;19925;-69
2022/05/13 02:36:30;;;;;;;;;;;8.70;99.90;;;;;;5077629;28;19975;-71
2022/05/13 02:38:56;;;;;;;;;;;8.60;99.90;;;;;;5085345;28;19928;-71
2022/05/13 02:41:23;;;;;;;;;;;8.60;99.90;;;;;;5072372;28;20657;-70
2022/05/13 02:43:52;;;;;;;;;;;8.60;99.90;;;;;;5064923;28;19925;-70
2022/05/13 02:46:20;;;;;;;;;;;8.60;99.90;;;;;;5074736;28;19925;-70
2022/05/13 02:48:49;;;;;;;;;;;8.60;99.90;;;;;;5064524;28;19960;-69
2022/05/13 02:51:17;;;;;;;;;;;8.60;99.90;;;;;;5072891;28;19928;-70
2022/05/13 02:53:44;;;;;;;;;;;8.60;99.90;;;;;;5060736;28;19924;-70
2022/05/13 02:56:10;;;;;;;;;;;8.60;99.90;;;;;;5072437;28;19942;-69
2022/05/13 02:58:37;;;;;;;;;;;8.60;99.90;;;;;;5063890;28;19925;-70
2022/05/13 03:01:05;;;;;;;;;;;8.60;99.90;;;;;;5067212;28;19925;-69
2022/05/13 03:03:33;;;;;;;;;;;8.60;99.90;;;;;;5070923;28;20454;-70
2022/05/13 03:06:00;;;;;;;;;;;8.50;99.90;;;;;;5064314;28;20256;-69
2022/05/13 03:08:26;;;;;;;;;;;8.40;99.90;;;;;;5062652;28;19928;-70
2022/05/13 03:10:53;;;;;;;;;;;8.30;99.90;;;;;;5058513;28;19928;-70
2022/05/13 03:13:20;;;;;;;;;;;8.20;99.90;;;;;;5069210;28;19935;-70
2022/05/13 03:15:47;;;;;;;;;;;8.10;99.90;;;;;;5072452;28;20535;-71
2022/05/13 03:18:16;;;;;;;;;;;8.10;99.90;;;;;;5065132;28;19933;-70
2022/05/13 03:20:43;;;;;;;;;;;8.00;99.90;;;;;;5068269;28;19924;-70
2022/05/13 03:23:15;;;;;;;;;;;8.00;99.90;;;;;;5076502;28;19925;-70
2022/05/13 03:25:42;;;;;;;;;;;8.10;99.90;;;;;;5072657;28;19925;-70
2022/05/13 03:28:10;;;;;;;;;;;8.10;99.90;;;;;;5081595;28;19924;-70
2022/05/13 03:30:37;;;;;;;;;;;8.20;99.90;;;;;;5074926;28;19924;-71
2022/05/13 03:33:04;;;;;;;;;;;8.30;99.90;;;;;;5080327;28;19924;-69
2022/05/13 03:35:33;;;;;;;;;;;8.30;99.90;;;;;;5070259;28;19924;-70
2022/05/13 03:38:02;;;;;;;;;;;8.30;99.90;;;;;;5069549;28;19960;-70
2022/05/13 03:40:29;;;;;;;;;;;8.30;99.90;;;;;;5069908;28;20106;-69
2022/05/13 03:42:56;;;;;;;;;;;8.40;99.90;;;;;;5078896;28;20011;-69
2022/05/13 03:45:23;;;;;;;;;;;8.40;99.90;;;;;;5060803;28;19933;-70
2022/05/13 03:47:51;;;;;;;;;;;8.40;99.90;;;;;;5089476;28;19978;-70
2022/05/13 03:50:21;;;;;;;;;;;8.40;99.90;;;;;;5069423;28;19930;-71
2022/05/13 03:52:47;;;;;;;;;;;8.40;99.90;;;;;;5072990;28;19931;-70
2022/05/13 03:55:14;;;;;;;;;;;8.50;99.90;;;;;;5072072;28;19972;-70
2022/05/13 03:57:41;;;;;;;;;;;8.40;99.90;;;;;;5085283;28;19972;-71
2022/05/13 04:00:10;;;;;;;;;;;8.40;99.90;;;;;;5062262;28;20447;-70
2022/05/13 04:02:38;;;;;;;;;;;8.30;99.90;;;;;;5076273;28;19931;-70
2022/05/13 04:10:36;;;;;;;;;;;8.40;99.90;;;;;;5065150;28;20015;-70
2022/05/13 04:16:06;;;;;;;;;;;8.40;99.90;;;;;;5067629;28;20274;-71
2022/05/13 04:18:35;;;;;;;;;;;8.40;99.90;;;;;;5057731;28;19964;-71
2022/05/13 04:21:04;;;;;;;;;;;8.40;99.90;;;;;;5063265;28;20364;-70
2022/05/13 04:23:32;;;;;;;;;;;8.40;99.90;;;;;;5068534;28;19967;-71
2022/05/13 04:26:01;;;;;;;;;;;8.50;99.90;;;;;;5075743;28;19924;-70
2022/05/13 04:28:28;;;;;;;;;;;8.60;99.90;;;;;;5061176;28;20025;-70
2022/05/13 04:30:55;;;;;;;;;;;8.80;99.90;;;;;;5082662;28;19925;-71
2022/05/13 04:33:21;;;;;;;;;;;8.90;99.90;;;;;;5064411;28;19931;-71
2022/05/13 04:35:50;;;;;;;;;;;9.00;99.90;;;;;;5071389;28;19925;-70
2022/05/13 04:38:17;;;;;;;;;;;9.30;99.90;;;;;;5065503;28;20051;-70
2022/05/13 04:40:44;;;;;;;;;;;10.00;99.90;;;;;;5064382;28;19925;-70
2022/05/13 04:43:10;;;;;;;;;;;10.70;99.90;;;;;;5065845;28;19929;-70
2022/05/13 04:45:37;;;;;;;;;;;11.40;99.90;;;;;;5076115;28;19932;-70
2022/05/13 04:48:22;;;;;;;;;;;12.20;99.90;;;;;;5079726;28;20007;-70
2022/05/13 04:50:50;;;;;;;;;;;13.10;99.90;;;;;;5064248;28;19924;-69
2022/05/13 04:53:19;;;;;;;;;;;14.20;99.90;;;;;;5059441;28;19933;-69
2022/05/13 04:55:46;;;;;;;;;;;15.10;99.90;;;;;;5067482;28;20387;-65
2022/05/13 04:58:13;;;;;;;;;;;16.10;99.90;;;;;;5072458;28;20003;-65
2022/05/13 05:00:42;;;;;;;;;;;16.50;99.90;;;;;;5066952;28;19931;-64
2022/05/13 05:03:09;;;;;;;;;;;16.70;99.90;;;;;;5065401;28;19925;-64
2022/05/13 05:05:35;;;;;;;;;;;16.50;99.90;;;;;;5068821;28;19931;-65
2022/05/13 05:08:02;;;;;;;;;;;16.90;99.90;;;;;;5078021;28;19929;-64
2022/05/13 05:10:29;;;;;;;;;;;17.60;99.90;;;;;;5070868;28;20012;-65
2022/05/13 05:12:57;;;;;;;;;;;18.50;99.90;;;;;;5055253;28;19932;-64
2022/05/13 05:15:24;;;;;;;;;;;19.50;99.90;;;;;;5064998;28;19950;-65
2022/05/13 05:17:54;;;;;;;;;;;19.40;99.90;;;;;;5082366;28;20279;-64
2022/05/13 05:20:22;;;;;;;;;;;18.80;99.90;;;;;;5062501;28;20546;-64
2022/05/13 05:22:49;;;;;;;;;;;18.60;99.90;;;;;;5062597;28;20035;-64
2022/05/13 05:25:17;;;;;;;;;;;17.80;99.90;;;;;;5062296;28;19929;-64
2022/05/13 05:27:43;;;;;;;;;;;17.00;99.90;;;;;;5063807;28;19925;-64
2022/05/13 05:30:11;;;;;;;;;;;16.40;99.90;;;;;;5065461;28;20685;-64
2022/05/13 05:32:39;;;;;;;;;;;16.00;99.90;;;;;;5068406;28;19924;-64
2022/05/13 05:35:06;;;;;;;;;;;16.00;99.90;;;;;;5070657;28;19925;-65
2022/05/13 05:37:33;;;;;;;;;;;16.50;99.90;;;;;;5067198;28;19932;-65
2022/05/13 05:40:00;;;;;;;;;;;17.60;99.90;;;;;;5067154;28;19959;-65
2022/05/13 05:42:27;;;;;;;;;;;19.20;99.90;;;;;;5067569;28;19989;-65
2022/05/13 05:44:53;;;;;;;;;;;21.00;99.90;;;;;;5061293;28;19932;-65
2022/05/13 05:47:21;;;;;;;;;;;22.20;99.90;;;;;;5061543;28;19994;-66
2022/05/13 05:49:48;;;;;;;;;;;22.90;99.90;;;;;;5063391;28;19972;-66
2022/05/13 05:52:15;;;;;;;;;;;23.80;99.90;;;;;;5068091;28;19925;-65
2022/05/13 05:57:31;;;;;;;;;;;24.10;99.90;;;;;;5062296;28;19924;-65
2022/05/13 05:59:58;;;;;;;;;;;23.40;99.90;;;;;;5069436;28;20064;-64
2022/05/13 06:02:25;;;;;;;;;;;22.80;99.90;;;;;;5058850;28;20027;-65
2022/05/13 06:04:52;;;;;;;;;;;23.10;99.90;;;;;;5058068;28;19925;-66
2022/05/13 06:07:21;;;;;;;;;;;23.90;99.90;;;;;;5064679;28;19924;-65
2022/05/13 06:09:48;;;;;;;;;;;24.10;99.90;;;;;;5068600;28;19928;-64
2022/05/13 06:12:16;;;;;;;;;;;23.40;99.90;;;;;;5061020;28;19968;-66
2022/05/13 06:14:46;;;;;;;;;;;22.60;99.90;;;;;;5065101;28;19925;-64
2022/05/13 06:17:15;;;;;;;;;;;21.40;99.90;;;;;;5064187;28;19924;-63
2022/05/13 06:19:42;;;;;;;;;;;20.80;99.90;;;;;;5062678;28;19933;-63
2022/05/13 06:22:09;;;;;;;;;;;20.10;99.90;;;;;;5065963;28;19978;-63
2022/05/13 06:24:35;;;;;;;;;;;19.60;99.90;;;;;;5069167;28;19968;-64
2022/05/13 06:27:02;;;;;;;;;;;19.40;99.90;;;;;;5064583;28;19931;-64
2022/05/13 06:29:32;;;;;;;;;;;19.10;99.90;;;;;;5066055;28;19932;-63
2022/05/13 06:31:59;;;;;;;;;;;18.90;99.90;;;;;;5074372;28;20018;-64
2022/05/13 06:34:26;;;;;;;;;;;19.00;99.90;;;;;;5063618;28;19940;-64
2022/05/13 06:36:52;;;;;;;;;;;19.80;99.90;;;;;;5063812;28;19954;-62
2022/05/13 06:39:19;;;;;;;;;;;21.10;99.90;;;;;;5061777;28;20290;-63
2022/05/13 06:41:46;;;;;;;;;;;22.20;99.90;;;;;;5058527;28;19929;-63
2022/05/13 06:44:18;;;;;;;;;;;23.30;99.90;;;;;;5062296;28;19977;-63
2022/05/13 06:46:44;;;;;;;;;;;24.20;99.90;;;;;;5065914;28;20382;-63
2022/05/13 06:49:12;;;;;;;;;;;25.20;99.90;;;;;;5074202;28;19928;-63
2022/05/13 06:51:40;;;;;;;;;;;25.60;99.80;;;;;;5062806;28;20033;-64
2022/05/13 06:54:10;;;;;;;;;;;25.70;99.50;;;;;;5072277;28;19945;-63
2022/05/13 06:56:38;;;;;;;;;;;25.70;98.90;;;;;;5070792;28;19933;-63
2022/05/13 06:59:11;;;;;;;;;;;25.90;98.80;;;;;;5058808;28;19943;-63
2022/05/13 07:01:39;;;;;;;;;;;26.20;98.30;;;;;;5060782;28;20062;-63
2022/05/13 07:04:06;;;;;;;;;;;26.50;98.10;;;;;;5059109;28;19925;-62
2022/05/13 07:06:32;;;;;;;;;;;26.90;97.50;;;;;;5072459;28;20543;-62
2022/05/13 07:08:59;;;;;;;;;;;27.50;97.10;;;;;;5068126;28;20019;-64
2022/05/13 07:11:26;;;;;;;;;;;26.20;95.90;;;;;;5065494;28;19925;-63
2022/05/13 07:13:55;;;;;;;;;;;25.10;96.50;;;;;;5060124;28;19932;-62
2022/05/13 07:16:22;;;;;;;;;;;24.50;97.00;;;;;;5067173;28;19939;-65
2022/05/13 07:18:49;;;;;;;;;;;23.30;97.50;;;;;;5073128;28;19931;-63
2022/05/13 07:21:16;;;;;;;;;;;22.80;98.40;;;;;;5062452;28;19924;-63
2022/05/13 07:23:45;;;;;;;;;;;22.60;99.10;;;;;;5063341;28;19936;-62
2022/05/13 07:26:11;;;;;;;;;;;22.00;98.80;;;;;;5066992;28;19929;-63
2022/05/13 07:28:39;;;;;;;;;;;21.70;99.70;;;;;;5066903;28;19932;-63
2022/05/13 07:31:07;;;;;;;;;;;22.50;99.90;;;;;;5067658;28;19929;-63
2022/05/13 07:33:35;;;;;;;;;;;23.50;98.90;;;;;;5062329;28;19932;-63
2022/05/13 07:36:02;;;;;;;;;;;24.70;97.90;;;;;;5063096;28;19931;-63
2022/05/13 07:38:30;;;;;;;;;;;25.40;97.20;;;;;;5064077;28;20032;-63
2022/05/13 07:41:16;;;;;;;;;;;25.20;96.30;;;;;;5066076;28;19925;-64
2022/05/13 07:43:44;;;;;;;;;;;24.20;96.50;;;;;;5058022;28;19931;-62
2022/05/13 07:46:11;;;;;;;;;;;22.90;97.70;;;;;;5068084;28;19925;-62
2022/05/13 07:48:41;;;;;;;;;;;22.90;97.90;;;;;;5063183;28;19971;-62
2022/05/13 07:51:08;;;;;;;;;;;23.20;98.00;;;;;;5065247;28;20167;-63
2022/05/13 07:53:40;;;;;;;;;;;23.80;97.90;;;;;;5055057;28;19924;-62
2022/05/13 07:56:08;;;;;;;;;;;24.30;97.50;;;;;;5066157;28;19932;-64
2022/05/13 07:58:35;;;;;;;;;;;24.60;96.80;;;;;;5065494;28;20333;-63
2022/05/13 08:01:02;;;;;;;;;;;24.70;96.70;;;;;;5060837;28;20630;-62
2022/05/13 08:03:30;;;;;;;;;;;24.80;95.20;;;;;;5063799;28;19928;-62
2022/05/13 08:06:02;;;;;;;;;;;24.70;95.40;;;;;;5069055;28;19933;-62
2022/05/13 08:08:33;;;;;;;;;;;24.50;95.50;;;;;;5062670;28;19987;-62
2022/05/13 08:11:00;;;;;;;;;;;24.10;95.20;;;;;;5064407;28;20011;-63
2022/05/13 08:13:30;;;;;;;;;;;24.30;95.20;;;;;;5069405;28;19931;-61
2022/05/13 08:15:58;;;;;;;;;;;24.10;94.50;;;;;;5065695;28;19924;-62
2022/05/13 08:18:24;;;;;;;;;;;24.10;95.40;;;;;;5068728;28;19925;-62
2022/05/13 08:20:52;;;;;;;;;;;24.50;95.40;;;;;;5071152;28;20051;-61
2022/05/13 08:23:19;;;;;;;;;;;24.60;94.90;;;;;;5066121;28;19924;-62
2022/05/13 08:25:46;;;;;;;;;;;24.80;94.40;;;;;;5066201;28;19936;-61
2022/05/13 08:28:13;;;;;;;;;;;24.30;94.70;;;;;;5056168;28;20024;-61
2022/05/13 08:30:40;;;;;;;;;;;24.00;95.10;;;;;;5073636;28;19924;-61
2022/05/13 08:33:10;;;;;;;;;;;24.00;94.60;;;;;;5073497;28;19924;-62
2022/05/13 08:35:38;;;;;;;;;;;23.70;95.20;;;;;;5070492;28;19924;-61
2022/05/13 08:38:06;;;;;;;;;;;23.60;94.70;;;;;;5060354;28;19929;-61
2022/05/13 08:40:49;;;;;;;;;;;24.10;95.20;;;;;;5075095;28;19939;-61
2022/05/13 08:43:16;;;;;;;;;;;24.60;94.70;;;;;;5085163;28;19928;-60
2022/05/13 08:45:49;;;;;;;;;;;24.80;94.00;;;;;;5067917;28;19931;-61
2022/05/13 08:48:25;;;;;;;;;;;24.70;94.10;;;;;;5066190;28;19924;-62
2022/05/13 08:51:10;;;;;;;;;;;24.30;94.50;;;;;;5059215;28;20421;-61
2022/05/13 08:53:50;;;;;;;;;;;24.20;94.70;;;;;;5074446;28;19956;-61
2022/05/13 08:56:22;;;;;;;;;;;24.20;93.90;;;;;;5063982;28;20440;-61
2022/05/13 08:58:55;;;;;;;;;;;24.10;94.20;;;;;;5065386;28;19925;-61
2022/05/13 09:01:27;;;;;;;;;;;24.30;93.90;;;;;;5056532;28;20492;-61
2022/05/13 09:03:59;;;;;;;;;;;24.60;93.50;;;;;;5062064;28;20462;-62
2022/05/13 09:06:40;;;;;;;;;;;24.10;93.20;;;;;;5058759;28;19933;-61
2022/05/13 09:09:09;;;;;;;;;;;23.80;93.60;;;;;;5071793;28;19931;-59
2022/05/13 09:11:48;;;;;;;;;;;23.80;92.40;;;;;;5064833;28;20410;-61
2022/05/13 09:14:24;;;;;;;;;;;24.00;93.20;;;;;;5062057;28;19924;-62
2022/05/13 09:16:57;;;;;;;;;;;24.60;92.90;;;;;;5061389;28;19931;-61
2022/05/13 09:19:50;;;;;;;;;;;24.70;91.80;;;;;;5067672;28;19924;-61
2022/05/13 09:22:16;;;;;;;;;;;24.60;91.30;;;;;;5070914;28;19924;-61
2022/05/13 09:24:45;;;;;;;;;;;25.00;91.00;;;;;;5059143;28;19925;-60
2022/05/13 09:27:46;;;;;;;;;;;25.00;90.80;;;;;;5066800;28;20389;-62
2022/05/13 09:30:17;;;;;;;;;;;24.90;92.70;;;;;;5067352;28;19932;-61
2022/05/13 09:32:44;;;;;;;;;;;24.70;90.30;;;;;;5065887;28;19925;-60
2022/05/13 09:35:11;;;;;;;;;;;24.70;90.90;;;;;;5071719;28;19939;-62
2022/05/13 09:37:40;;;;;;;;;;;24.90;91.50;;;;;;5057771;28;19983;-61
2022/05/13 09:40:11;;;;;;;;;;;24.70;91.80;;;;;;5079540;28;19946;-61
2022/05/13 09:42:42;;;;;;;;;;;24.90;90.40;;;;;;5091275;28;19959;-61
2022/05/13 09:45:15;;;;;;;;;;;25.50;89.60;;;;;;5063749;28;19947;-61
2022/05/13 09:47:42;;;;;;;;;;;25.30;89.90;;;;;;5070509;28;19932;-61
2022/05/13 09:50:26;;;;;;;;;;;24.90;90.00;;;;;;5062607;28;19933;-61
2022/05/13 09:52:53;;;;;;;;;;;24.20;90.00;;;;;;5075138;28;19929;-62
2022/05/13 09:55:24;;;;;;;;;;;23.90;91.00;;;;;;5063962;28;20379;-61
2022/05/13 09:57:54;;;;;;;;;;;24.10;91.20;;;;;;5064473;28;20483;-62
2022/05/13 10:00:29;;;;;;;;;;;24.40;90.80;;;;;;5069492;28;20031;-60
2022/05/13 10:03:06;;;;;;;;;;;24.60;90.90;;;;;;5053696;28;19924;-62
2022/05/13 10:05:36;;;;;;;;;;;24.90;90.70;;;;;;5053688;28;20387;-60
2022/05/13 10:08:08;;;;;;;;;;;25.60;90.10;;;;;;5065573;28;19925;-61
2022/05/13 10:16:18;;;;;;;;;;;24.80;90.20;;;;;;5061841;28;20469;-62
2022/05/13 10:18:48;;;;;;;;;;;24.90;90.10;;;;;;5062028;28;19931;-61
2022/05/13 10:21:25;;;;;;;;;;;24.50;90.00;;;;;;5062752;28;19945;-61
2022/05/13 10:23:58;;;;;;;;;;;24.20;90.60;;;;;;5065164;28;20642;-61
2022/05/13 10:26:29;;;;;;;;;;;24.30;90.00;;;;;;5066144;28;19925;-62
2022/05/13 10:29:13;;;;;;;;;;;24.80;90.50;;;;;;5063063;28;20387;-63
2022/05/13 10:31:42;;;;;;;;;;;25.20;90.10;;;;;;5066369;28;19935;-61
2022/05/13 10:34:19;;;;;;;;;;;25.10;89.70;;;;;;5070656;28;19928;-62
2022/05/13 10:36:55;;;;;;;;;;;25.20;90.50;;;;;;5074993;28;20379;-61
2022/05/13 10:39:44;;;;;;;;;;;24.30;90.10;;;;;;5058112;28;20000;-65
2022/05/13 10:42:18;;;;;;;;;;;24.30;91.00;;;;;;5069112;28;19924;-61
2022/05/13 10:44:47;;;;;;;;;;;24.90;90.00;;;;;;5076097;28;20291;-61
2022/05/13 10:47:22;;;;;;;;;;;25.50;89.60;;;;;;5070046;28;20294;-62
2022/05/13 10:49:48;;;;;;;;;;;25.80;89.80;;;;;;5061590;28;20051;-62
2022/05/13 10:52:51;;;;;;;;;;;26.30;89.40;;;;;;5061142;28;19924;-62
2022/05/13 10:55:42;;;;;;;;;;;26.50;88.80;;;;;;5008611;28;20316;-63
2022/05/13 10:58:29;;;;;;;;;;;26.60;90.00;;;;;;5005846;28;19930;-63
2022/05/13 11:01:21;;;;;;;;;;;26.30;90.00;;;;;;4972094;28;20075;-63
2022/05/13 11:03:57;;;;;;;;;;;26.40;90.50;;;;;;5009488;28;19965;-62
2022/05/13 11:06:26;;;;;;;;;;;26.40;89.60;;;;;;5012740;28;19980;-61
2022/05/13 11:09:05;;;;;;;;;;;26.50;90.00;;;;;;5007450;28;19933;-61
2022/05/13 11:11:40;;;;;;;;;;;27.00;90.00;;;;;;5012088;28;20380;-63
2022/05/13 11:14:15;;;;;;;;;;;27.00;88.10;;;;;;5007389;28;19930;-63
2022/05/13 11:16:50;;;;;;;;;;;26.90;88.40;;;;;;5009794;28;19932;-63
2022/05/13 11:19:26;;;;;;;;;;;26.80;88.80;;;;;;5004677;28;19925;-62
2022/05/13 11:22:10;;;;;;;;;;;26.90;89.60;;;;;;4985110;28;19957;-63
2022/05/13 11:27:40;;;;;;;;;;;25.80;89.80;;;;;;5006893;28;19925;-62
2022/05/13 11:30:15;;;;;;;;;;;25.70;89.50;;;;;;5054027;28;20359;-62
2022/05/13 11:32:45;;;;;;;;;;;25.80;88.40;;;;;;5072208;28;19999;-63
2022/05/13 11:35:23;;;;;;;;;;;26.00;89.10;;;;;;5077986;28;19925;-61
2022/05/13 11:37:53;;;;;;;;;;;26.10;89.80;;;;;;5069282;28;19925;-61
2022/05/13 11:40:25;;;;;;;;;;;25.70;88.40;;;;;;5057969;28;19932;-63
2022/05/13 11:43:19;;;;;;;;;;;25.30;88.60;;;;;;5065963;28;20272;-63
2022/05/13 11:45:52;;;;;;;;;;;24.90;89.70;;;;;;5075287;28;19940;-62
2022/05/13 11:48:23;;;;;;;;;;;24.70;90.90;;;;;;5068954;28;20768;-62
2022/05/13 11:50:50;;;;;;;;;;;24.60;90.70;;;;;;5069327;28;19931;-63
2022/05/13 11:53:36;;;;;;;;;;;24.90;91.20;;;;;;5065935;28;19951;-61
2022/05/13 11:56:19;;;;;;;;;;;24.40;89.80;;;;;;5064164;28;19925;-63
2022/05/13 11:58:47;;;;;;;;;;;24.60;91.10;;;;;;5060403;28;19939;-63
2022/05/13 12:01:34;;;;;;;;;;;24.60;90.10;;;;;;5066863;28;19924;-62
2022/05/13 12:04:13;;;;;;;;;;;24.80;90.30;;;;;;5062838;28;19934;-63
2022/05/13 12:06:52;;;;;;;;;;;25.20;91.10;;;;;;5064146;28;21869;-63
2022/05/13 12:09:28;;;;;;;;;;;25.30;90.30;;;;;;5063508;28;20011;-64
2022/05/13 12:12:11;;;;;;;;;;;25.80;88.00;;;;;;5071151;28;19931;-63
2022/05/13 12:14:41;;;;;;;;;;;25.60;88.70;;;;;;5063819;28;19935;-62
2022/05/13 12:17:26;;;;;;;;;;;25.60;90.10;;;;;;5074238;28;19925;-63
2022/05/13 12:20:05;;;;;;;;;;;25.60;89.90;;;;;;5062779;28;19968;-62
2022/05/13 12:22:38;;;;;;;;;;;25.70;90.10;;;;;;5055854;28;19929;-64
2022/05/13 12:25:07;;;;;;;;;;;25.80;88.80;;;;;;5061428;28;19936;-64
2022/05/13 12:27:38;;;;;;;;;;;25.80;90.30;;;;;;5062433;28;20011;-64
2022/05/13 12:30:11;;;;;;;;;;;25.90;89.80;;;;;;5064119;28;19933;-64
2022/05/13 12:32:39;;;;;;;;;;;26.20;88.70;;;;;;5064047;28;19925;-66
2022/05/13 12:38:07;;;;;;;;;;;26.40;87.40;;;;;;5056293;28;19932;-65
2022/05/13 12:40:36;;;;;;;;;;;26.40;89.00;;;;;;5067354;28;20555;-64
2022/05/13 12:43:12;;;;;;;;;;;26.40;88.10;;;;;;5067996;28;19933;-62
2022/05/13 12:45:39;;;;;;;;;;;26.60;88.10;;;;;;5068529;28;20021;-61
2022/05/13 12:48:08;;;;;;;;;;;26.30;87.80;;;;;;5067585;28;19931;-62
2022/05/13 12:50:38;;;;;;;;;;;26.10;87.80;;;;;;5074267;28;20014;-62
2022/05/13 12:53:23;;;;;;;;;;;26.00;88.80;;;;;;5066578;28;20571;-62
2022/05/13 12:56:18;;;;;;;;;;;25.90;88.20;;;;;;5067978;28;19928;-64
2022/05/13 12:58:53;;;;;;;;;;;26.30;87.10;;;;;;5061045;28;20011;-63
2022/05/13 13:01:24;;;;;;;;;;;26.60;87.90;;;;;;5064439;28;20413;-63
2022/05/13 13:03:52;;;;;;;;;;;26.60;86.30;;;;;;5055606;28;19932;-62
2022/05/13 13:06:20;;;;;;;;;;;26.60;87.20;;;;;;5064045;28;19932;-63
2022/05/13 13:08:48;;;;;;;;;;;26.50;88.00;;;;;;5061311;28;19924;-62
2022/05/13 13:11:33;;;;;;;;;;;26.40;88.90;;;;;;5067410;28;19925;-64
2022/05/13 13:14:20;;;;;;;;;;;26.40;89.60;;;;;;5068011;28;19936;-62
2022/05/13 13:16:59;;;;;;;;;;;26.40;87.20;;;;;;5076667;28;19928;-63
2022/05/13 13:19:29;;;;;;;;;;;26.60;88.30;;;;;;5066914;28;19928;-63
2022/05/13 13:21:56;;;;;;;;;;;26.50;88.60;;;;;;5067117;28;19931;-63
2022/05/13 13:24:29;;;;;;;;;;;26.70;87.60;;;;;;5071820;28;19924;-63
2022/05/13 13:26:56;;;;;;;;;;;26.50;86.40;;;;;;5067766;28;20359;-63
2022/05/13 13:29:32;;;;;;;;;;;26.30;86.10;;;;;;5071096;28;19940;-63
2022/05/13 13:32:00;;;;;;;;;;;26.00;86.90;;;;;;5077707;28;19928;-62
2022/05/13 13:34:30;;;;;;;;;;;26.00;88.30;;;;;;5065273;28;19924;-63
2022/05/13 13:36:57;;;;;;;;;;;26.10;87.80;;;;;;5065375;28;19925;-62
2022/05/13 13:39:44;;;;;;;;;;;26.50;88.50;;;;;;5065344;28;19936;-63
2022/05/13 13:42:12;;;;;;;;;;;26.80;88.70;;;;;;5068191;28;20007;-62
2022/05/13 13:44:42;;;;;;;;;;;27.10;86.70;;;;;;5061045;28;19925;-63
2022/05/13 13:47:14;;;;;;;;;;;27.20;86.00;;;;;;5058795;28;19936;-62
2022/05/13 13:49:41;;;;;;;;;;;27.30;86.40;;;;;;5060867;28;19924;-62
2022/05/13 13:52:13;;;;;;;;;;;27.40;85.50;;;;;;5060569;28;19929;-62
2022/05/13 13:54:41;;;;;;;;;;;27.50;86.10;;;;;;5061570;28;20058;-62
2022/05/13 13:57:23;;;;;;;;;;;27.60;84.10;;;;;;5059804;28;20470;-63
2022/05/13 14:00:01;;;;;;;;;;;27.80;84.90;;;;;;5069985;28;19931;-62
2022/05/13 14:02:33;;;;;;;;;;;28.30;83.40;;;;;;5061957;28;19924;-63
2022/05/13 14:05:00;;;;;;;;;;;28.30;83.70;;;;;;5061523;28;19935;-62
2022/05/13 14:07:27;;;;;;;;;;;28.30;84.10;;;;;;5070604;28;19939;-62
2022/05/13 14:09:54;;;;;;;;;;;28.40;84.40;;;;;;5073263;28;19938;-62
2022/05/13 14:12:22;;;;;;;;;;;28.60;84.00;;;;;;5060643;28;19951;-63
2022/05/13 14:15:08;;;;;;;;;;;28.80;83.40;;;;;;5053617;28;20371;-62
2022/05/13 14:17:39;;;;;;;;;;;29.00;83.20;;;;;;5054153;28;20055;-63
2022/05/13 14:20:10;;;;;;;;;;;29.00;82.30;;;;;;5059747;28;19925;-63
2022/05/13 14:22:53;;;;;;;;;;;29.30;82.40;;;;;;5067140;28;19925;-62
2022/05/13 14:25:20;;;;;;;;;;;29.40;82.10;;;;;;5071219;28;19924;-63
2022/05/13 14:27:47;;;;;;;;;;;29.40;82.10;;;;;;5063476;28;19933;-62
2022/05/13 14:30:14;;;;;;;;;;;30.00;82.20;;;;;;5060221;28;20598;-64
2022/05/13 14:32:47;;;;;;;;;;;30.20;80.70;;;;;;5067767;28;20375;-61
2022/05/13 14:35:16;;;;;;;;;;;30.20;81.40;;;;;;5056831;28;19951;-62
2022/05/13 14:37:52;;;;;;;;;;;30.60;80.20;;;;;;5062995;28;20014;-61
2022/05/13 14:40:22;;;;;;;;;;;30.50;79.90;;;;;;5069084;28;20311;-62
2022/05/13 14:42:56;;;;;;;;;;;31.10;78.70;;;;;;5058389;28;19928;-62
2022/05/13 14:45:23;;;;;;;;;;;31.30;78.40;;;;;;5054585;28;19932;-62
2022/05/13 14:47:50;;;;;;;;;;;31.80;79.70;;;;;;5065686;28;19955;-63
2022/05/13 14:50:33;;;;;;;;;;;31.70;78.40;;;;;;5064092;28;19950;-62
2022/05/13 14:53:05;;;;;;;;;;;31.40;77.70;;;;;;5060553;28;19932;-62
2022/05/13 14:55:50;;;;;;;;;;;31.50;77.80;;;;;;5070447;28;20027;-62
2022/05/13 14:58:22;;;;;;;;;;;31.50;77.70;;;;;;5056117;28;19930;-63
2022/05/13 15:00:50;;;;;;;;;;;31.40;75.90;;;;;;5063221;28;19932;-60
2022/05/13 15:03:22;;;;;;;;;;;31.10;75.80;;;;;;5067449;28;19977;-63